Time;durP1;ratioP1;P1;durP2;ratioP2;P2;SDS_P1;SDS_P2;PMS_P1;PMS_P2;Temp;Humidity;BMP_temperature;BMP_pressure;BME280_temperature;BME280_humidity;BME280_pressure;Samples;Min_cycle;Max_cycle;Signal;HPM_P1;HPM_P2
2021/10/13 00:02:01;;;;;;;1.00;1.00;;;;;;;5.88;75.64;100852.00;5108829;28;20217;-72
2021/10/13 00:04:30;;;;;;;1.30;1.30;;;;;;;5.94;75.50;100861.53;5109052;28;20229;-72
2021/10/13 00:06:58;;;;;;;1.20;1.20;;;;;;;5.96;75.13;100852.53;5090651;28;20214;-72
2021/10/13 00:09:26;;;;;;;1.07;1.07;;;;;;;6.00;75.26;100861.25;5106615;28;20693;-72
2021/10/13 00:11:54;;;;;;;1.00;1.00;;;;;;;6.02;74.92;100859.38;5107939;28;20282;-71
2021/10/13 00:14:22;;;;;;;0.77;0.77;;;;;;;5.98;74.92;100861.31;5108539;28;20234;-72
2021/10/13 00:16:55;;;;;;;0.87;0.87;;;;;;;5.96;75.29;100860.53;5108475;28;20267;-72
2021/10/13 00:19:24;;;;;;;0.93;0.93;;;;;;;5.97;74.41;100862.25;5109400;28;20213;-72
2021/10/13 00:21:53;;;;;;;1.00;1.00;;;;;;;5.96;75.23;100867.66;5108548;28;20206;-72
2021/10/13 00:24:21;;;;;;;1.00;1.00;;;;;;;5.91;74.56;100868.75;5108184;28;20298;-73
2021/10/13 00:26:49;;;;;;;1.00;1.00;;;;;;;5.91;74.85;100863.41;5107424;28;20241;-73
2021/10/13 00:29:17;;;;;;;0.97;0.97;;;;;;;5.83;74.22;100852.22;5090383;28;20237;-73
2021/10/13 00:31:45;;;;;;;1.17;1.17;;;;;;;5.62;74.31;100815.91;5090582;28;20220;-73
2021/10/13 00:34:16;;;;;;;1.00;1.00;;;;;;;5.91;74.41;100866.06;5094345;28;20222;-73
2021/10/13 00:36:44;;;;;;;0.93;0.93;;;;;;;5.76;74.63;100847.22;5108996;28;20571;-73
2021/10/13 00:39:12;;;;;;;0.90;0.90;;;;;;;5.58;74.75;100824.97;5107613;28;20209;-73
2021/10/13 00:41:40;;;;;;;1.00;1.00;;;;;;;5.82;75.01;100866.47;5108581;28;20672;-73
2021/10/13 00:44:08;;;;;;;1.00;1.00;;;;;;;5.79;74.82;100871.91;5101921;28;20210;-73
2021/10/13 00:46:37;;;;;;;1.10;1.10;;;;;;;5.74;74.84;100871.28;5108527;28;20209;-73
2021/10/13 00:49:05;;;;;;;1.13;1.13;;;;;;;5.70;74.96;100864.34;5107977;28;20293;-72
2021/10/13 00:51:35;;;;;;;0.90;0.90;;;;;;;5.68;74.68;100868.91;5108544;28;20228;-73
2021/10/13 00:54:03;;;;;;;0.93;0.93;;;;;;;5.66;75.35;100861.91;5107283;28;20229;-73
2021/10/13 00:56:31;;;;;;;1.07;1.07;;;;;;;5.64;74.99;100869.97;5108003;28;20259;-72
2021/10/13 00:58:59;;;;;;;0.77;0.77;;;;;;;5.60;74.91;100863.06;5107202;28;20616;-73
2021/10/13 01:01:33;;;;;;;1.33;1.33;;;;;;;5.60;75.43;100868.38;5094253;28;20221;-72
2021/10/13 01:04:18;;;;;;;1.03;1.03;;;;;;;5.58;76.28;100873.78;5107782;28;20213;-72
2021/10/13 01:06:59;;;;;;;1.00;1.00;;;;;;;5.50;76.06;100867.91;5106691;28;21254;-72
2021/10/13 01:09:33;;;;;;;1.03;1.03;;;;;;;5.52;76.24;100883.84;5108074;28;20237;-73
2021/10/13 01:12:23;;;;;;;1.10;1.10;;;;;;;5.47;76.20;100880.50;5089488;28;20872;-73
2021/10/13 01:14:59;;;;;;;1.08;1.08;;;;;;;5.45;75.72;100890.34;5107154;28;20304;-73
2021/10/13 01:17:34;;;;;;;1.13;1.13;;;;;;;5.43;76.19;100890.44;5104496;28;20218;-73
2021/10/13 01:20:11;;;;;;;0.83;0.83;;;;;;;5.39;76.52;100888.84;5103190;28;20220;-73
2021/10/13 01:23:09;;;;;;;1.00;1.00;;;;;;;5.39;76.16;100895.97;5108112;28;20205;-73
2021/10/13 01:25:49;;;;;;;1.17;1.17;;;;;;;5.34;75.65;100892.66;5107465;28;20226;-74
2021/10/13 01:28:20;;;;;;;1.03;1.03;;;;;;;5.26;75.77;100901.84;5107830;28;20248;-73
2021/10/13 01:30:57;;;;;;;0.97;0.97;;;;;;;5.28;75.79;100899.97;5107733;28;20209;-73
2021/10/13 01:33:29;;;;;;;1.07;1.07;;;;;;;5.35;76.76;100897.03;5107919;28;20243;-73
2021/10/13 01:36:03;;;;;;;1.00;1.00;;;;;;;5.28;76.06;100897.31;5094197;28;20681;-73
2021/10/13 01:38:36;;;;;;;0.93;0.93;;;;;;;5.30;75.61;100903.44;5105617;28;20214;-72
2021/10/13 01:41:07;;;;;;;1.03;1.03;;;;;;;5.26;75.29;100901.84;5107546;28;20202;-73
2021/10/13 01:43:39;;;;;;;0.77;0.77;;;;;;;5.23;75.29;100909.97;5107580;28;20224;-73
2021/10/13 01:46:08;;;;;;;1.20;1.20;;;;;;;5.22;75.53;100910.03;5106913;28;20317;-73
2021/10/13 01:48:38;;;;;;;0.97;0.97;;;;;;;5.25;75.90;100915.22;5108255;28;20214;-73
2021/10/13 01:51:07;;;;;;;1.03;1.03;;;;;;;5.21;75.42;100911.81;5107310;28;20669;-73
2021/10/13 01:53:36;;;;;;;1.03;1.03;;;;;;;5.17;75.76;100912.00;5104765;28;20619;-73
2021/10/13 01:56:07;;;;;;;1.10;1.10;;;;;;;4.81;75.55;100843.44;5109295;28;20672;-73
2021/10/13 01:58:38;;;;;;;0.97;0.97;;;;;;;5.21;75.48;100909.16;5111857;28;20297;-73
2021/10/13 02:01:10;;;;;;;1.03;1.03;;;;;;;5.20;75.90;100923.41;5111454;28;20680;-73
2021/10/13 02:03:40;;;;;;;1.13;1.13;;;;;;;5.21;75.78;100914.47;5112026;28;20584;-73
2021/10/13 02:06:10;;;;;;;1.27;1.27;;;;;;;5.26;75.77;100916.94;5110426;28;20202;-73
2021/10/13 02:08:39;;;;;;;1.00;1.00;;;;;;;5.30;76.40;100924.72;5111415;28;20465;-73
2021/10/13 02:11:10;;;;;;;1.23;1.23;;;;;;;5.37;75.87;100921.78;5110894;28;20396;-73
2021/10/13 02:13:41;;;;;;;1.20;1.20;;;;;;;5.41;76.12;100923.38;5111282;28;20210;-72
2021/10/13 02:16:10;;;;;;;0.87;0.87;;;;;;;5.26;75.61;100895.66;5110944;28;20206;-73
2021/10/13 02:18:41;;;;;;;0.83;0.83;;;;;;;5.43;75.57;100929.50;5111136;28;20620;-73
2021/10/13 02:21:09;;;;;;;0.93;0.93;;;;;;;5.43;75.64;100929.50;5110710;28;20427;-73
2021/10/13 02:23:38;;;;;;;0.83;0.83;;;;;;;5.38;75.80;100929.72;5111007;28;20278;-72
2021/10/13 02:26:12;;;;;;;0.83;0.83;;;;;;;5.35;75.76;100929.00;5109773;28;20638;-72
2021/10/13 02:28:47;;;;;;;0.77;0.77;;;;;;;5.29;75.56;100925.66;5110806;28;20655;-73
2021/10/13 02:31:15;;;;;;;0.93;0.93;;;;;;;5.23;75.24;100928.59;5110912;28;20667;-73
2021/10/13 02:33:43;;;;;;;1.00;1.00;;;;;;;5.18;75.74;100930.56;5110864;28;20233;-73
2021/10/13 02:36:11;;;;;;;0.83;0.83;;;;;;;5.20;75.58;100928.72;5108269;28;20601;-73
2021/10/13 02:38:39;;;;;;;0.83;0.83;;;;;;;5.17;75.43;100933.28;5110880;28;20240;-73
2021/10/13 02:41:08;;;;;;;1.10;1.10;;;;;;;5.14;75.67;100934.28;5110677;28;20347;-73
2021/10/13 02:43:36;;;;;;;0.77;0.77;;;;;;;5.12;75.59;100932.63;5105761;28;20214;-73
2021/10/13 02:46:14;;;;;;;0.93;0.93;;;;;;;5.06;75.95;100933.75;5110228;28;20206;-73
2021/10/13 02:48:45;;;;;;;1.03;1.03;;;;;;;5.02;75.53;100934.81;5110399;28;20259;-72
2021/10/13 02:51:21;;;;;;;0.83;0.83;;;;;;;4.92;75.74;100938.81;5110263;28;20206;-73
2021/10/13 02:53:58;;;;;;;0.83;0.83;;;;;;;4.95;75.75;100938.66;5110205;28;20214;-72
2021/10/13 02:56:30;;;;;;;0.83;0.83;;;;;;;4.89;76.22;100949.53;5096110;28;20221;-72
2021/10/13 02:59:04;;;;;;;0.73;0.73;;;;;;;4.90;76.18;100935.34;5088239;28;20218;-73
2021/10/13 03:01:39;;;;;;;0.87;0.87;;;;;;;4.88;76.63;100938.03;5108409;28;20568;-73
2021/10/13 03:04:13;;;;;;;0.93;0.93;;;;;;;4.80;75.94;100939.28;5110010;28;20206;-73
2021/10/13 03:06:47;;;;;;;0.83;0.83;;;;;;;4.82;76.24;100945.41;5089804;28;20217;-74
2021/10/13 03:09:15;;;;;;;0.87;0.87;;;;;;;4.81;76.38;100941.00;5102842;28;20610;-73
2021/10/13 03:11:44;;;;;;;1.13;1.13;;;;;;;4.80;76.46;100955.25;5109131;28;20573;-73
2021/10/13 03:14:13;;;;;;;0.93;0.93;;;;;;;4.77;76.21;100950.91;5109148;28;20672;-73
2021/10/13 03:16:43;;;;;;;1.10;1.10;;;;;;;4.76;76.54;100953.63;5101236;27;20685;-73
2021/10/13 03:19:13;;;;;;;1.03;1.03;;;;;;;4.71;76.73;100948.50;5108456;27;20210;-73
2021/10/13 03:21:41;;;;;;;1.00;1.00;;;;;;;4.64;76.69;100950.56;5107777;28;20206;-73
2021/10/13 03:24:09;;;;;;;1.00;1.00;;;;;;;4.66;76.29;100956.69;5108959;28;20297;-67
2021/10/13 03:26:38;;;;;;;1.03;1.03;;;;;;;4.60;76.25;100964.03;5109497;28;20294;-73
2021/10/13 03:29:06;;;;;;;0.93;0.93;;;;;;;4.61;76.60;100966.63;5107200;28;20241;-73
2021/10/13 03:31:34;;;;;;;0.93;0.93;;;;;;;4.57;76.56;100972.97;5112070;27;20216;-73
2021/10/13 03:34:03;;;;;;;1.03;1.03;;;;;;;4.53;76.56;100974.03;5108726;28;20718;-73
2021/10/13 03:36:38;;;;;;;1.07;1.07;;;;;;;4.52;76.97;100960.78;5112377;27;20233;-73
2021/10/13 03:39:06;;;;;;;1.03;1.03;;;;;;;4.52;77.10;100972.28;5107465;28;20202;-73
2021/10/13 03:41:34;;;;;;;0.93;0.93;;;;;;;4.45;76.58;100964.63;5109325;28;20214;-74
2021/10/13 03:44:03;;;;;;;1.03;1.03;;;;;;;4.45;76.85;100970.81;5105452;28;20685;-73
2021/10/13 03:46:32;;;;;;;0.93;0.93;;;;;;;4.34;77.06;100962.41;5108628;28;20198;-74
2021/10/13 03:49:01;;;;;;;1.13;1.13;;;;;;;4.41;77.24;100969.19;5106538;28;20210;-73
2021/10/13 03:51:30;;;;;;;1.07;1.07;;;;;;;4.36;77.21;100966.72;5108396;27;20225;-74
2021/10/13 03:53:59;;;;;;;1.10;1.10;;;;;;;4.41;77.21;100974.53;5105352;28;20230;-74
2021/10/13 03:56:30;;;;;;;1.00;1.00;;;;;;;4.35;77.56;100969.44;5108488;28;20664;-73
2021/10/13 03:58:58;;;;;;;1.00;1.00;;;;;;;4.39;77.39;100968.41;5100609;28;20871;-73
2021/10/13 04:01:27;;;;;;;0.83;0.83;;;;;;;4.44;77.27;100969.09;5099360;28;20218;-73
2021/10/13 04:03:55;;;;;;;0.90;0.90;;;;;;;4.44;77.04;100968.22;5108333;28;20553;-73
2021/10/13 04:06:23;;;;;;;0.97;0.97;;;;;;;4.43;77.29;100966.47;5109113;28;20214;-74
2021/10/13 04:08:53;;;;;;;0.87;0.87;;;;;;;4.40;77.67;100969.25;5102069;28;20214;-75
2021/10/13 04:11:21;;;;;;;1.27;1.27;;;;;;;4.41;77.90;100976.31;5099352;28;20210;-73
2021/10/13 04:13:51;;;;;;;0.77;0.77;;;;;;;4.02;77.87;100908.69;5097606;28;20206;-73
2021/10/13 04:16:19;;;;;;;0.73;0.73;;;;;;;4.39;77.49;100978.16;5097512;28;20306;-73
2021/10/13 04:18:47;;;;;;;0.80;0.80;;;;;;;4.36;77.94;100977.34;5080527;28;20218;-73
2021/10/13 04:21:15;;;;;;;0.73;0.73;;;;;;;4.34;77.98;100979.22;5098451;27;20202;-73
2021/10/13 04:23:43;;;;;;;0.73;0.73;;;;;;;4.30;77.85;100982.06;5101991;28;20616;-73
2021/10/13 04:26:13;;;;;;;0.77;0.77;;;;;;;4.28;78.59;100983.88;5100011;28;20575;-73
2021/10/13 04:28:41;;;;;;;0.87;0.87;;;;;;;4.23;78.48;100980.53;5094960;28;20250;-72
2021/10/13 04:31:10;;;;;;;0.93;0.93;;;;;;;4.23;78.46;100996.47;5093953;27;20271;-73
2021/10/13 04:33:38;;;;;;;0.83;0.83;;;;;;;4.21;78.46;100993.00;5093374;28;20213;-73
2021/10/13 04:36:06;;;;;;;2.40;2.30;;;;;;;4.13;78.45;100990.66;5099232;28;20962;-72
2021/10/13 04:38:34;;;;;;;0.93;0.93;;;;;;;4.13;78.89;101008.38;5096301;28;20259;-72
2021/10/13 04:41:03;;;;;;;0.87;0.87;;;;;;;4.13;78.50;101003.06;5101328;28;20210;-72
2021/10/13 04:43:32;;;;;;;1.17;1.17;;;;;;;4.14;78.56;101005.66;5104824;28;20221;-72
2021/10/13 04:46:00;;;;;;;1.00;1.00;;;;;;;4.09;78.43;100998.78;5103473;28;20221;-72
2021/10/13 04:48:28;;;;;;;2.30;2.20;;;;;;;4.04;78.53;100994.53;5101679;28;20213;-72
2021/10/13 04:50:57;;;;;;;0.97;0.97;;;;;;;4.07;78.83;101003.28;5104763;28;20193;-72
2021/10/13 04:53:25;;;;;;;1.03;1.03;;;;;;;3.97;78.50;100997.44;5104053;28;20232;-72
2021/10/13 04:55:53;;;;;;;1.00;1.00;;;;;;;4.02;78.66;101009.66;5104962;28;20633;-72
2021/10/13 04:58:21;;;;;;;1.00;1.00;;;;;;;4.00;78.42;101003.53;5102709;28;20621;-73
2021/10/13 05:00:51;;;;;;;1.00;1.00;;;;;;;3.97;78.22;101005.41;5080606;28;20206;-73
2021/10/13 05:03:19;;;;;;;1.03;1.03;;;;;;;3.97;78.39;101018.69;5102281;28;20718;-72
2021/10/13 05:05:47;;;;;;;1.03;1.03;;;;;;;3.93;78.47;101003.78;5106537;28;20202;-73
2021/10/13 05:08:15;;;;;;;1.17;1.17;;;;;;;3.94;78.53;101008.16;5107675;28;20213;-72
2021/10/13 05:10:44;;;;;;;0.97;0.97;;;;;;;3.70;78.52;100975.41;5089979;28;20339;-72
2021/10/13 05:13:12;;;;;;;0.87;0.87;;;;;;;3.89;78.47;101013.66;5107791;28;20217;-72
2021/10/13 05:15:44;;;;;;;1.13;1.13;;;;;;;3.86;78.43;101019.09;5107907;28;20244;-72
2021/10/13 05:18:13;;;;;;;0.73;0.73;;;;;;;3.62;78.54;100978.31;5106954;28;20221;-72
2021/10/13 05:20:41;;;;;;;0.73;0.73;;;;;;;3.85;78.56;101025.31;5108277;28;20726;-72
2021/10/13 05:23:10;;;;;;;1.10;1.10;;;;;;;3.81;78.25;101009.53;5107706;28;20684;-72
2021/10/13 05:25:38;;;;;;;0.87;0.87;;;;;;;3.85;78.30;101016.47;5107960;28;20357;-72
2021/10/13 05:28:06;;;;;;;0.97;0.97;;;;;;;3.65;78.43;100985.31;5107345;28;20238;-72
2021/10/13 05:30:34;;;;;;;0.90;0.90;;;;;;;3.80;78.43;101016.66;5108732;28;20608;-72
2021/10/13 05:33:02;;;;;;;0.77;0.77;;;;;;;3.60;78.57;100979.31;5111872;28;20206;-72
2021/10/13 05:35:32;;;;;;;0.67;0.67;;;;;;;3.84;78.62;101023.59;5112019;28;20208;-72
2021/10/13 05:38:00;;;;;;;0.90;0.90;;;;;;;3.78;78.49;101021.16;5111714;28;20221;-72
2021/10/13 05:40:28;;;;;;;0.73;0.73;;;;;;;3.79;78.48;101022.88;5097709;28;20577;-72
2021/10/13 05:42:56;;;;;;;1.03;1.03;;;;;;;3.80;78.88;101029.06;5093150;28;20214;-72
2021/10/13 05:45:25;;;;;;;0.87;0.87;;;;;;;3.82;79.15;101028.09;5111898;28;20221;-72
2021/10/13 05:47:53;;;;;;;0.93;0.93;;;;;;;3.88;79.60;101027.84;5110461;28;20210;-72
2021/10/13 05:50:21;;;;;;;1.03;1.03;;;;;;;3.89;79.43;101039.34;5111566;28;20202;-73
2021/10/13 05:52:50;;;;;;;1.00;1.00;;;;;;;3.97;79.34;101035.50;5111929;28;20206;-72
2021/10/13 05:55:38;;;;;;;0.95;0.95;;;;;;;4.01;79.20;101042.47;5111658;28;20236;-72
2021/10/13 05:58:07;;;;;;;0.87;0.87;;;;;;;4.10;79.36;101046.56;5111239;28;20210;-72
2021/10/13 06:00:35;;;;;;;0.93;0.93;;;;;;;4.18;79.03;101049.81;5110771;28;20214;-72
2021/10/13 06:03:03;;;;;;;1.15;1.15;;;;;;;4.22;79.16;101048.75;5108504;27;20199;-72
2021/10/13 06:05:31;;;;;;;1.10;1.10;;;;;;;4.33;78.92;101053.72;5109775;28;20289;-72
2021/10/13 06:08:01;;;;;;;1.05;1.05;;;;;;;4.40;78.93;101047.22;5109738;28;20202;-72
2021/10/13 06:10:29;;;;;;;0.95;0.95;;;;;;;4.49;78.73;101036.25;5111015;28;20210;-71
2021/10/13 06:12:57;;;;;;;0.87;0.87;;;;;;;4.51;78.39;101039.69;5110271;28;20232;-72
2021/10/13 06:15:30;;;;;;;1.05;1.05;;;;;;;4.52;78.46;101043.22;5111092;28;20221;-72
2021/10/13 06:17:58;;;;;;;1.05;1.05;;;;;;;4.59;77.99;101042.97;5109143;28;20222;-72
2021/10/13 06:20:26;;;;;;;1.08;1.08;;;;;;;4.64;78.14;101056.06;5109350;28;20217;-72
2021/10/13 06:22:55;;;;;;;0.88;0.88;;;;;;;4.57;78.33;101026.16;5109952;28;20608;-72
2021/10/13 06:25:28;;;;;;;1.23;1.20;;;;;;;4.52;77.63;101009.53;5110819;28;20210;-72
2021/10/13 06:27:56;;;;;;;0.77;0.77;;;;;;;4.83;77.37;101058.88;5108998;28;20242;-72
2021/10/13 06:30:25;;;;;;;0.77;0.77;;;;;;;4.92;77.82;101062.06;5110769;28;20204;-72
2021/10/13 06:32:53;;;;;;;0.83;0.83;;;;;;;4.98;77.56;101048.50;5092075;28;20232;-72
2021/10/13 06:35:21;;;;;;;0.77;0.77;;;;;;;5.07;77.50;101054.38;5110266;28;20213;-71
2021/10/13 06:37:49;;;;;;;0.90;0.90;;;;;;;5.10;76.30;101055.13;5110488;28;20675;-71
2021/10/13 06:40:18;;;;;;;0.80;0.80;;;;;;;5.21;77.30;101049.38;5110605;28;20200;-72
2021/10/13 06:42:47;;;;;;;0.73;0.73;;;;;;;5.25;76.61;101053.66;5109390;28;20581;-72
2021/10/13 06:45:16;;;;;;;0.73;0.73;;;;;;;5.27;75.89;101054.47;5102917;28;20221;-71
2021/10/13 06:47:44;;;;;;;0.73;0.73;;;;;;;5.39;76.63;101055.72;5110565;28;20206;-72
2021/10/13 06:50:14;;;;;;;0.73;0.73;;;;;;;5.46;75.88;101058.06;5109909;28;20680;-72
2021/10/13 06:52:42;;;;;;;0.73;0.73;;;;;;;5.54;75.56;101065.78;5110457;28;20200;-73
2021/10/13 06:55:10;;;;;;;0.70;0.70;;;;;;;5.63;75.13;101065.38;5109891;28;20220;-73
2021/10/13 06:57:39;;;;;;;0.83;0.83;;;;;;;5.78;75.43;101069.16;5108988;28;20313;-72
2021/10/13 07:00:10;;;;;;;1.03;1.03;;;;;;;5.89;74.98;101070.50;5109695;28;20900;-68
2021/10/13 07:02:38;;;;;;;0.93;0.93;;;;;;;5.94;74.72;101075.63;5110074;28;20212;-68
2021/10/13 07:05:07;;;;;;;0.87;0.87;;;;;;;5.94;74.42;101069.44;5109681;28;20279;-68
2021/10/13 07:07:42;;;;;;;1.37;1.33;;;;;;;6.10;73.83;101086.47;5110437;28;21069;-68
2021/10/13 07:10:10;;;;;;;0.87;0.87;;;;;;;6.13;73.97;101081.91;5109735;28;20189;-68
2021/10/13 07:12:38;;;;;;;2.87;2.67;;;;;;;6.22;73.26;101084.16;5110030;28;20215;-68
2021/10/13 07:15:10;;;;;;;2.70;2.50;;;;;;;6.29;73.58;101091.88;5109550;28;20528;-68
2021/10/13 07:17:38;;;;;;;2.83;2.60;;;;;;;6.43;73.06;101089.47;5110079;28;20327;-68
2021/10/13 07:20:09;;;;;;;1.10;1.10;;;;;;;6.29;72.34;101082.06;5109542;28;20198;-68
2021/10/13 07:22:37;;;;;;;1.00;1.00;;;;;;;6.57;73.24;101103.03;5109907;28;20260;-68
2021/10/13 07:25:06;;;;;;;1.00;1.00;;;;;;;6.54;71.99;101113.84;5109230;28;20251;-68
2021/10/13 07:27:36;;;;;;;0.73;0.73;;;;;;;6.62;72.48;101100.16;5108743;28;20623;-68
2021/10/13 07:30:06;;;;;;;1.10;1.10;;;;;;;6.69;71.48;101106.94;5109531;28;20288;-68
2021/10/13 07:32:36;;;;;;;0.80;0.80;;;;;;;6.70;72.47;101106.84;5109665;28;20204;-67
2021/10/13 07:35:22;;;;;;;0.80;0.80;;;;;;;6.71;71.47;101099.72;5109569;28;20200;-68
2021/10/13 07:37:51;;;;;;;0.70;0.70;;;;;;;6.71;71.58;101107.72;5110046;28;20226;-69
2021/10/13 07:40:20;;;;;;;0.77;0.77;;;;;;;6.68;71.89;101106.06;5109829;28;20248;-68
2021/10/13 07:42:48;;;;;;;0.80;0.80;;;;;;;6.39;70.65;101048.69;5109845;28;20212;-68
2021/10/13 07:45:18;;;;;;;1.30;1.27;;;;;;;6.71;71.13;101105.91;5109114;28;20543;-69
2021/10/13 07:47:47;;;;;;;0.90;0.90;;;;;;;6.46;71.11;101067.97;5109170;28;20253;-68
2021/10/13 07:50:16;;;;;;;1.80;1.70;;;;;;;6.72;70.51;101101.44;5109081;28;20203;-69
2021/10/13 07:52:45;;;;;;;1.07;1.07;;;;;;;6.82;71.17;101102.78;5109123;28;20253;-68
2021/10/13 07:55:13;;;;;;;1.07;1.07;;;;;;;6.72;71.06;101098.78;5108668;28;20221;-68
2021/10/13 07:57:41;;;;;;;0.83;0.83;;;;;;;6.91;70.79;101094.34;5108035;28;20204;-68
2021/10/13 08:00:10;;;;;;;1.97;1.87;;;;;;;6.98;70.81;101097.56;5108993;28;20577;-68
2021/10/13 08:02:44;;;;;;;1.60;1.53;;;;;;;7.02;70.70;101105.34;5108899;28;20248;-69
2021/10/13 08:05:15;;;;;;;0.70;0.70;;;;;;;6.87;69.92;101100.75;5108742;28;20199;-68
2021/10/13 08:07:44;;;;;;;0.77;0.77;;;;;;;7.01;70.42;101102.75;5109040;28;20209;-68
2021/10/13 08:10:13;;;;;;;1.00;1.00;;;;;;;7.00;69.75;101099.22;5108645;28;20237;-68
2021/10/13 08:12:41;;;;;;;1.20;1.20;;;;;;;6.97;70.33;101095.84;5108846;28;20566;-69
2021/10/13 08:15:10;;;;;;;1.07;1.07;;;;;;;7.03;69.31;101100.88;5108403;28;20495;-69
2021/10/13 08:17:38;;;;;;;0.73;0.73;;;;;;;7.08;70.12;101091.75;5108795;28;20226;-68
2021/10/13 08:20:08;;;;;;;0.87;0.87;;;;;;;6.94;69.86;101063.94;5108377;28;20310;-68
2021/10/13 08:22:38;;;;;;;0.97;0.97;;;;;;;7.30;70.20;101101.38;5109031;28;20223;-68
2021/10/13 08:25:07;;;;;;;2.43;2.27;;;;;;;7.29;69.21;101113.00;5108422;28;20206;-69
2021/10/13 08:27:35;;;;;;;2.30;2.17;;;;;;;7.34;69.42;101113.63;5107786;28;20229;-68
2021/10/13 08:30:04;;;;;;;1.03;1.03;;;;;;;7.30;69.05;101109.38;5108441;28;20204;-68
2021/10/13 08:32:32;;;;;;;0.73;0.73;;;;;;;7.37;68.27;101118.84;5108808;28;20219;-68
2021/10/13 08:35:02;;;;;;;0.93;0.93;;;;;;;7.29;68.51;101118.34;5108637;28;20224;-68
2021/10/13 08:37:30;;;;;;;1.17;1.17;;;;;;;7.33;68.71;101122.59;5108462;28;20226;-69
2021/10/13 08:39:59;;;;;;;1.00;1.00;;;;;;;7.36;69.15;101120.66;5108386;28;20203;-68
2021/10/13 08:42:28;;;;;;;0.87;0.87;;;;;;;7.46;68.43;101126.41;5108493;28;20226;-69
2021/10/13 08:44:56;;;;;;;0.90;0.90;;;;;;;7.52;69.41;101115.44;5108800;28;20611;-68
2021/10/13 08:47:25;;;;;;;1.10;1.10;;;;;;;7.53;69.56;101129.66;5107692;28;20206;-68
2021/10/13 08:49:53;;;;;;;0.93;0.93;;;;;;;7.49;69.53;101126.28;5108236;28;20207;-68
2021/10/13 08:52:21;;;;;;;1.03;1.03;;;;;;;7.28;68.78;101097.91;5107646;28;20229;-68
2021/10/13 08:54:49;;;;;;;1.80;1.70;;;;;;;7.53;69.17;101129.66;5108668;28;20198;-67
2021/10/13 08:57:21;;;;;;;1.27;1.27;;;;;;;7.66;69.53;101144.16;5107904;28;20286;-68
2021/10/13 08:59:51;;;;;;;1.00;1.00;;;;;;;7.60;68.71;101139.09;5108227;28;20316;-67
2021/10/13 09:02:36;;;;;;;0.93;0.93;;;;;;;7.68;69.44;101148.50;5107582;28;20205;-68
2021/10/13 09:05:10;;;;;;;0.93;0.93;;;;;;;7.71;69.03;101150.16;5106884;28;20206;-68
2021/10/13 09:07:41;;;;;;;0.97;0.97;;;;;;;7.82;69.63;101152.28;5108111;28;20241;-68
2021/10/13 09:10:10;;;;;;;1.33;1.33;;;;;;;7.78;69.49;101152.44;5107412;28;20295;-67
2021/10/13 09:12:41;;;;;;;1.00;1.00;;;;;;;7.82;67.65;101154.94;5107962;28;20210;-67
2021/10/13 09:15:12;;;;;;;1.00;1.00;;;;;;;7.91;69.39;101155.34;5107662;28;20283;-67
2021/10/13 09:17:55;;;;;;;0.90;0.90;;;;;;;7.87;69.07;101150.22;5107091;28;20657;-67
2021/10/13 09:20:25;;;;;;;0.90;0.90;;;;;;;7.83;67.93;101160.22;5108144;28;20207;-67
2021/10/13 09:23:03;;;;;;;0.93;0.93;;;;;;;7.76;68.01;101156.13;5107702;28;20212;-68
2021/10/13 09:25:32;;;;;;;0.80;0.80;;;;;;;7.83;67.92;101145.97;5108299;28;20227;-67
2021/10/13 09:28:02;;;;;;;0.90;0.90;;;;;;;7.87;67.39;101152.91;5107073;28;20698;-68
2021/10/13 09:30:33;;;;;;;0.93;0.93;;;;;;;7.90;67.64;101152.75;5108044;28;20221;-68
2021/10/13 09:33:13;;;;;;;0.77;0.77;;;;;;;7.71;68.53;101096.69;5107405;28;20536;-68
2021/10/13 09:35:44;;;;;;;0.83;0.83;;;;;;;8.10;68.46;101152.63;5089623;28;20261;-68
2021/10/13 09:38:18;;;;;;;0.93;0.93;;;;;;;8.06;68.41;101143.03;5107180;28;20707;-68
2021/10/13 09:40:48;;;;;;;0.87;0.87;;;;;;;8.16;67.91;101148.75;5107664;28;20205;-67
2021/10/13 09:43:31;;;;;;;0.90;0.90;;;;;;;8.23;68.08;101151.03;5107229;28;20203;-67
2021/10/13 09:46:05;;;;;;;0.83;0.83;;;;;;;8.17;65.31;101147.81;5107048;28;20200;-67
2021/10/13 09:48:35;;;;;;;0.87;0.87;;;;;;;8.31;68.03;101145.31;5107180;28;20207;-67
2021/10/13 09:51:14;;;;;;;0.93;0.93;;;;;;;8.31;67.47;101148.00;5088808;28;20209;-68
2021/10/13 09:53:43;;;;;;;1.00;1.00;;;;;;;8.36;67.36;101146.81;5107474;28;20307;-67
2021/10/13 09:56:28;;;;;;;1.00;1.00;;;;;;;8.25;66.13;101135.75;5107080;28;20237;-68
2021/10/13 09:59:22;;;;;;;0.90;0.90;;;;;;;8.38;66.29;101149.41;5107372;28;20225;-68
2021/10/13 10:01:54;;;;;;;0.87;0.87;;;;;;;8.24;64.95;101131.34;5077255;28;20236;-68
2021/10/13 10:04:26;;;;;;;1.10;1.10;;;;;;;8.43;67.56;101135.78;5107103;28;20213;-68
2021/10/13 10:06:57;;;;;;;0.90;0.90;;;;;;;8.54;65.76;101149.47;5107692;28;20577;-68
2021/10/13 10:09:27;;;;;;;0.93;0.93;;;;;;;8.50;65.21;101155.94;5107378;28;20205;-68
2021/10/13 10:12:05;;;;;;;0.77;0.77;;;;;;;8.51;65.40;101155.84;5107755;28;20287;-68
2021/10/13 10:14:46;;;;;;;0.87;0.87;;;;;;;8.48;64.33;101149.78;5107806;28;20221;-68
2021/10/13 10:17:41;;;;;;;0.83;0.83;;;;;;;8.52;65.30;101124.59;5104814;28;20255;-68
2021/10/13 10:20:32;;;;;;;0.83;0.83;;;;;;;8.69;64.52;101149.53;5110399;28;20574;-67
2021/10/13 10:23:31;;;;;;;0.90;0.90;;;;;;;8.87;66.10;101146.78;5110712;28;20262;-68
2021/10/13 10:26:02;;;;;;;0.77;0.77;;;;;;;8.93;66.19;101151.84;5102156;28;20298;-67
2021/10/13 10:28:52;;;;;;;0.93;0.93;;;;;;;8.93;63.82;101152.72;5110811;28;20644;-68
2021/10/13 10:31:37;;;;;;;1.00;1.00;;;;;;;8.91;65.16;101154.59;5110633;28;20317;-68
2021/10/13 10:34:11;;;;;;;0.90;0.90;;;;;;;8.88;63.55;101144.06;5098545;28;20198;-68
2021/10/13 10:37:14;;;;;;;0.90;0.90;;;;;;;8.99;64.28;101160.41;5110846;28;20222;-68
2021/10/13 10:40:05;;;;;;;0.93;0.93;;;;;;;9.02;65.81;101137.94;5110661;28;20600;-68
2021/10/13 10:43:04;;;;;;;0.93;0.93;;;;;;;9.21;63.23;101157.41;5098286;28;20214;-67
2021/10/13 10:45:40;;;;;;;0.93;0.93;;;;;;;9.19;63.92;101159.31;5098218;28;20660;-68
2021/10/13 10:48:12;;;;;;;0.93;0.93;;;;;;;9.27;65.56;101162.44;5109770;28;20626;-68
2021/10/13 10:50:46;;;;;;;0.93;0.93;;;;;;;9.25;63.86;101144.72;5110746;28;20205;-67
2021/10/13 10:53:27;;;;;;;0.93;0.93;;;;;;;9.39;64.43;101160.00;5108976;28;20212;-66
2021/10/13 10:55:58;;;;;;;0.93;0.93;;;;;;;9.36;61.64;101154.81;5091920;28;20213;-67
2021/10/13 10:58:29;;;;;;;1.00;1.00;;;;;;;9.45;65.00;101156.97;5110312;28;20205;-68
2021/10/13 11:01:17;;;;;;;0.87;0.87;;;;;;;9.50;62.46;101157.59;5110288;28;20274;-68
2021/10/13 11:03:47;;;;;;;0.93;0.93;;;;;;;9.53;61.38;101158.28;5109046;28;20715;-68
2021/10/13 11:06:18;;;;;;;0.97;0.97;;;;;;;9.64;63.60;101157.66;5109819;28;20213;-68
2021/10/13 11:09:08;;;;;;;0.93;0.93;;;;;;;9.70;64.96;101143.91;5110166;28;20579;-68
2021/10/13 11:11:39;;;;;;;0.93;0.93;;;;;;;9.77;62.46;101157.81;5093606;28;20222;-66
2021/10/13 11:14:10;;;;;;;0.93;0.93;;;;;;;9.83;64.29;101154.81;5109303;28;20210;-67
2021/10/13 11:16:40;;;;;;;0.83;0.83;;;;;;;9.89;63.66;101149.94;5110044;28;20287;-67
2021/10/13 11:19:16;;;;;;;0.97;0.97;;;;;;;9.95;60.46;101154.06;5109698;28;20446;-68
2021/10/13 11:21:46;;;;;;;0.93;0.93;;;;;;;9.99;61.32;101147.56;5109923;28;20288;-68
2021/10/13 11:24:18;;;;;;;0.93;0.93;;;;;;;10.07;62.91;101147.97;5109840;28;20650;-69
2021/10/13 11:26:46;;;;;;;0.93;0.93;;;;;;;10.00;57.66;101151.13;5109733;28;20205;-68
2021/10/13 11:29:19;;;;;;;0.87;0.87;;;;;;;10.01;58.90;101152.84;5108167;28;20258;-68
2021/10/13 11:31:48;;;;;;;1.00;1.00;;;;;;;9.76;57.72;101116.72;5109771;28;20513;-68
2021/10/13 11:34:20;;;;;;;1.10;1.10;;;;;;;9.85;58.96;101147.53;5095255;28;20665;-68
2021/10/13 11:36:53;;;;;;;0.93;0.93;;;;;;;10.06;59.62;101143.56;5109692;28;20595;-68
2021/10/13 11:39:24;;;;;;;1.00;1.00;;;;;;;10.20;60.83;101146.34;5094972;28;20227;-68
2021/10/13 11:41:53;;;;;;;2.20;2.10;;;;;;;10.32;61.95;101135.81;5108642;28;20214;-67
2021/10/13 11:44:24;;;;;;;1.00;1.00;;;;;;;10.56;62.38;101145.06;5108840;28;20203;-68
2021/10/13 11:47:04;;;;;;;1.53;1.47;;;;;;;10.64;60.57;101150.81;5109950;28;20237;-67
2021/10/13 11:49:53;;;;;;;1.30;1.30;;;;;;;10.70;58.04;101153.13;5109197;28;20528;-72
2021/10/13 11:52:22;;;;;;;1.47;1.43;;;;;;;10.87;61.16;101150.28;5108732;28;20204;-72
2021/10/13 11:55:02;;;;;;;1.50;1.47;;;;;;;10.96;59.18;101147.97;5109264;28;20215;-71